Time;durP1;ratioP1;P1;durP2;ratioP2;P2;SDS_P1;SDS_P2;PMS_P1;PMS_P2;Temp;Humidity;BMP_temperature;BMP_pressure;BME280_temperature;BME280_humidity;BME280_pressure;Samples;Min_cycle;Max_cycle;Signal;HPM_P1;HPM_P2
2022/10/17 00:00:38;;;;;;;14.85;5.53;;;11.10;99.90;;;;;;5058642;28;20037;-73
2022/10/17 00:03:03;;;;;;;17.23;5.93;;;11.10;99.90;;;;;;5058414;28;20124;-74
2022/10/17 00:05:29;;;;;;;20.35;6.82;;;11.10;99.90;;;;;;5058445;28;20567;-73
2022/10/17 00:07:55;;;;;;;13.98;5.72;;;11.10;99.90;;;;;;5058268;28;20482;-73
2022/10/17 00:10:20;;;;;;;15.77;6.10;;;11.10;99.90;;;;;;5057707;28;20507;-71
2022/10/17 00:12:46;;;;;;;16.55;5.80;;;11.10;99.90;;;;;;5057205;28;20041;-74
2022/10/17 00:15:16;;;;;;;10.43;5.15;;;11.10;99.90;;;;;;5041333;28;20068;-74
2022/10/17 00:17:41;;;;;;;16.38;5.22;;;11.10;99.90;;;;;;5058051;28;20056;-73
2022/10/17 00:20:07;;;;;;;13.23;5.15;;;11.20;99.90;;;;;;5057969;28;20425;-73
2022/10/17 00:22:33;;;;;;;13.15;4.85;;;11.10;99.90;;;;;;5057997;28;20136;-74
2022/10/17 00:24:58;;;;;;;12.80;5.28;;;11.20;99.90;;;;;;5056013;28;20505;-73
2022/10/17 00:27:24;;;;;;;20.17;5.53;;;11.20;99.90;;;;;;5057059;28;20060;-73
2022/10/17 00:29:51;;;;;;;16.42;5.60;;;11.30;99.90;;;;;;5058105;28;20086;-73
2022/10/17 00:32:18;;;;;;;15.30;5.13;;;11.30;99.90;;;;;;5057501;28;20036;-74
2022/10/17 00:34:43;;;;;;;14.18;5.25;;;11.30;99.90;;;;;;5039899;28;20102;-72
2022/10/17 00:37:09;;;;;;;13.45;4.55;;;11.30;99.90;;;;;;5057598;28;20060;-73
2022/10/17 00:39:35;;;;;;;13.45;5.05;;;11.40;99.90;;;;;;5057644;28;20044;-74
2022/10/17 00:42:00;;;;;;;21.92;4.97;;;11.40;99.90;;;;;;5039861;28;20048;-73
2022/10/17 00:44:29;;;;;;;17.33;5.20;;;11.40;99.90;;;;;;5057482;28;20049;-72
2022/10/17 00:47:03;;;;;;;9.40;4.30;;;11.60;99.90;;;;;;5057633;28;20049;-73
2022/10/17 00:49:32;;;;;;;13.43;4.80;;;11.50;99.90;;;;;;5056767;28;20523;-72
2022/10/17 00:52:01;;;;;;;15.75;4.45;;;11.70;99.90;;;;;;5057500;28;20044;-73
2022/10/17 00:54:32;;;;;;;14.95;4.97;;;11.60;99.90;;;;;;5056869;28;20060;-72
2022/10/17 00:56:58;;;;;;;14.32;4.28;;;11.60;99.90;;;;;;5056923;28;20033;-74
2022/10/17 00:59:25;;;;;;;11.05;4.70;;;11.70;99.90;;;;;;5057029;28;20084;-75
2022/10/17 01:01:59;;;;;;;9.38;4.45;;;11.70;99.90;;;;;;5039653;28;20064;-73
2022/10/17 01:04:25;;;;;;;11.50;4.28;;;11.70;99.90;;;;;;5057294;28;20037;-73
2022/10/17 01:06:50;;;;;;;12.32;4.78;;;11.80;99.90;;;;;;5057683;28;20051;-74
2022/10/17 01:09:16;;;;;;;19.92;4.93;;;11.80;99.90;;;;;;5056352;28;20451;-74
2022/10/17 01:11:47;;;;;;;10.85;4.90;;;11.90;99.90;;;;;;5056779;28;20047;-73
2022/10/17 01:14:36;;;;;;;24.50;4.72;;;11.90;99.90;;;;;;5057040;28;20120;-72
2022/10/17 01:17:16;;;;;;;10.60;5.25;;;11.90;99.90;;;;;;5057082;28;20388;-73
2022/10/17 01:19:58;;;;;;;10.00;4.82;;;11.90;99.90;;;;;;5056513;28;20040;-74
2022/10/17 01:22:39;;;;;;;11.60;4.18;;;12.00;99.90;;;;;;5056267;28;20351;-72
2022/10/17 01:25:39;;;;;;;15.27;5.18;;;12.00;99.90;;;;;;5055889;28;20124;-74
2022/10/17 01:28:35;;;;;;;10.27;4.60;;;12.00;99.90;;;;;;5036471;28;20041;-73
2022/10/17 01:31:24;;;;;;;10.02;4.35;;;12.00;99.90;;;;;;5036838;28;20053;-73
2022/10/17 01:34:06;;;;;;;12.65;4.57;;;12.10;99.90;;;;;;5019154;28;20085;-74
2022/10/17 01:36:41;;;;;;;8.35;4.22;;;12.10;99.90;;;;;;5036174;28;20061;-75
2022/10/17 01:39:21;;;;;;;14.48;4.80;;;12.10;99.90;;;;;;5036442;28;20064;-74
2022/10/17 01:41:54;;;;;;;16.33;4.70;;;12.10;99.90;;;;;;5052003;28;20052;-73
2022/10/17 01:44:40;;;;;;;7.55;4.15;;;12.10;99.90;;;;;;5038456;28;20476;-74
2022/10/17 01:47:11;;;;;;;14.32;4.95;;;12.10;99.90;;;;;;5056497;28;20091;-74
2022/10/17 01:49:39;;;;;;;12.68;5.63;;;12.10;99.90;;;;;;5055780;28;20060;-73
2022/10/17 01:52:12;;;;;;;15.68;5.47;;;12.40;99.90;;;;;;5056178;28;20052;-73
2022/10/17 01:54:46;;;;;;;14.38;5.10;;;12.20;99.90;;;;;;5055726;28;20061;-73
2022/10/17 01:57:30;;;;;;;9.55;5.20;;;12.20;99.90;;;;;;5055801;28;20045;-73
2022/10/17 01:59:56;;;;;;;8.23;5.10;;;12.20;99.90;;;;;;5055867;28;20041;-75
2022/10/17 02:02:24;;;;;;;11.02;5.30;;;12.10;99.90;;;;;;5056029;28;20077;-73
2022/10/17 02:04:52;;;;;;;13.75;4.88;;;12.10;99.90;;;;;;5038269;28;20369;-73
2022/10/17 02:07:17;;;;;;;11.93;5.45;;;12.10;99.90;;;;;;5055772;28;20056;-74
2022/10/17 02:09:43;;;;;;;13.35;5.18;;;12.00;99.90;;;;;;5055271;28;20041;-75
2022/10/17 02:12:33;;;;;;;11.00;5.07;;;12.10;99.90;;;;;;5055412;28;20128;-74
2022/10/17 02:15:17;;;;;;;11.98;5.78;;;12.00;99.90;;;;;;5055861;28;20120;-73
2022/10/17 02:17:57;;;;;;;14.52;5.60;;;11.90;99.90;;;;;;5056350;28;20381;-73
2022/10/17 02:20:36;;;;;;;12.85;6.47;;;11.90;99.90;;;;;;5055249;28;20462;-73
2022/10/17 02:23:10;;;;;;;11.40;6.15;;;11.90;99.90;;;;;;5055491;28;20041;-73
2022/10/17 02:25:50;;;;;;;13.38;6.65;;;11.90;99.90;;;;;;5055913;28;20315;-73
2022/10/17 02:28:27;;;;;;;13.07;7.22;;;11.90;99.90;;;;;;5055638;28;20119;-73
2022/10/17 02:30:57;;;;;;;11.38;7.38;;;11.90;99.90;;;;;;5055278;28;20045;-73
2022/10/17 02:33:53;;;;;;;13.98;6.38;;;12.10;99.90;;;;;;5055253;28;20041;-74
2022/10/17 02:36:22;;;;;;;24.58;8.13;;;11.90;99.90;;;;;;5035632;28;20052;-72
2022/10/17 02:38:49;;;;;;;17.13;7.57;;;11.90;99.90;;;;;;5054850;28;20132;-75
2022/10/17 02:41:17;;;;;;;11.88;7.65;;;11.90;99.90;;;;;;5055150;28;20052;-72
2022/10/17 02:43:46;;;;;;;13.07;7.70;;;12.00;99.90;;;;;;5055145;28;20041;-73
2022/10/17 02:46:19;;;;;;;17.20;7.93;;;11.90;99.90;;;;;;5055221;28;20084;-73
2022/10/17 02:48:56;;;;;;;13.55;7.72;;;11.90;99.90;;;;;;5054808;28;20157;-73
2022/10/17 02:51:59;;;;;;;13.35;7.97;;;11.90;99.90;;;;;;5037332;28;20449;-72
2022/10/17 02:54:50;;;;;;;12.43;6.93;;;11.90;99.90;;;;;;5054670;28;20060;-73
2022/10/17 02:57:21;;;;;;;14.93;8.55;;;11.80;99.90;;;;;;5043473;28;20493;-74
2022/10/17 02:59:47;;;;;;;12.90;8.20;;;12.00;99.90;;;;;;5054948;28;20048;-73
2022/10/17 03:02:13;;;;;;;13.13;8.30;;;12.00;99.90;;;;;;5054858;28;20053;-72
2022/10/17 03:04:45;;;;;;;14.45;7.55;;;12.00;99.90;;;;;;5055520;28;20048;-73
2022/10/17 03:07:11;;;;;;;11.77;8.43;;;12.10;99.90;;;;;;5054674;28;20036;-73
2022/10/17 03:09:37;;;;;;;12.23;8.02;;;12.10;99.90;;;;;;5037551;28;20049;-75
2022/10/17 03:12:03;;;;;;;14.30;8.27;;;12.10;99.90;;;;;;5055011;28;20041;-73
2022/10/17 03:14:29;;;;;;;27.25;8.85;;;12.10;99.90;;;;;;5054535;28;20171;-73
2022/10/17 03:16:54;;;;;;;11.98;8.23;;;12.10;99.90;;;;;;5054273;28;20136;-73
2022/10/17 03:19:20;;;;;;;12.48;8.35;;;12.10;99.90;;;;;;5054894;28;20049;-73
2022/10/17 03:21:45;;;;;;;12.30;8.95;;;12.10;99.90;;;;;;5054686;28;20592;-72
2022/10/17 03:24:11;;;;;;;18.08;9.75;;;12.10;99.90;;;;;;5054998;28;20338;-73
2022/10/17 03:26:37;;;;;;;17.38;8.57;;;12.10;99.90;;;;;;5054965;28;20053;-74
2022/10/17 03:29:02;;;;;;;12.18;9.15;;;12.10;99.90;;;;;;5055257;28;20442;-73
2022/10/17 03:31:28;;;;;;;12.82;8.88;;;12.20;99.90;;;;;;5054505;28;20497;-73
2022/10/17 03:33:54;;;;;;;14.45;10.43;;;12.20;99.90;;;;;;5054515;28;20079;-74
2022/10/17 03:36:19;;;;;;;11.60;9.30;;;12.20;99.90;;;;;;5054927;28;20099;-73
2022/10/17 03:38:45;;;;;;;15.82;10.25;;;12.20;99.90;;;;;;5054969;28;20482;-74
2022/10/17 03:41:11;;;;;;;12.13;9.20;;;12.30;99.90;;;;;;5054057;28;20045;-74
2022/10/17 03:43:38;;;;;;;15.20;10.38;;;12.30;99.90;;;;;;5054849;28;20358;-74
2022/10/17 03:46:05;;;;;;;12.95;8.90;;;12.30;99.90;;;;;;5054086;28;20041;-74
2022/10/17 03:48:31;;;;;;;19.10;11.07;;;12.30;99.90;;;;;;5055148;28;20354;-72
2022/10/17 03:51:08;;;;;;;12.02;9.15;;;12.30;99.90;;;;;;5054761;28;20127;-73
2022/10/17 03:53:34;;;;;;;16.35;10.05;;;12.30;99.90;;;;;;5054731;28;20052;-70
2022/10/17 03:56:11;;;;;;;12.25;8.88;;;12.50;99.90;;;;;;5037450;28;20041;-72
2022/10/17 03:58:39;;;;;;;13.40;10.02;;;12.30;99.90;;;;;;5059996;28;20419;-73
2022/10/17 04:01:06;;;;;;;15.55;9.07;;;12.30;99.90;;;;;;5035314;28;20128;-72
2022/10/17 04:03:32;;;;;;;13.27;10.10;;;12.30;99.90;;;;;;5019987;28;20046;-74
2022/10/17 04:06:03;;;;;;;14.77;10.85;;;12.20;99.90;;;;;;5016236;28;20046;-74
2022/10/17 04:08:29;;;;;;;14.77;10.52;;;12.30;99.90;;;;;;5015981;28;20141;-73
2022/10/17 04:10:59;;;;;;;18.15;11.68;;;12.30;99.90;;;;;;5016218;28;20046;-74
2022/10/17 04:13:24;;;;;;;10.00;8.98;;;12.30;99.90;;;;;;5016166;28;20100;-75
2022/10/17 04:15:55;;;;;;;15.57;11.15;;;12.30;99.90;;;;;;5016203;28;20124;-74
2022/10/17 04:18:21;;;;;;;14.80;10.45;;;12.30;99.90;;;;;;5016104;28;20045;-73
2022/10/17 04:20:46;;;;;;;12.55;9.82;;;12.30;99.90;;;;;;5015796;28;20142;-73
2022/10/17 04:23:12;;;;;;;16.33;11.95;;;12.40;99.90;;;;;;5015903;28;20054;-74
2022/10/17 04:25:37;;;;;;;16.08;12.38;;;12.40;99.90;;;;;;5015843;28;20111;-75
2022/10/17 04:28:03;;;;;;;21.33;12.80;;;12.40;99.90;;;;;;4999531;28;20045;-73
2022/10/17 04:30:29;;;;;;;25.17;13.57;;;12.50;99.90;;;;;;5015732;28;20536;-74
2022/10/17 04:32:54;;;;;;;15.65;12.45;;;12.50;99.90;;;;;;5031549;28;20489;-75
2022/10/17 04:35:20;;;;;;;18.83;13.57;;;12.50;99.90;;;;;;5023801;28;20502;-70
2022/10/17 04:37:45;;;;;;;15.07;11.05;;;12.50;99.90;;;;;;5000228;28;20471;-73
2022/10/17 04:40:11;;;;;;;18.70;13.55;;;12.50;99.90;;;;;;5015527;28;20054;-73
2022/10/17 04:42:36;;;;;;;17.05;13.38;;;12.90;99.90;;;;;;5015594;28;20077;-74
2022/10/17 04:45:03;;;;;;;20.88;14.68;;;12.70;99.90;;;;;;5038701;28;20053;-75
2022/10/17 04:47:28;;;;;;;16.55;12.70;;;12.80;99.90;;;;;;5057328;28;20511;-76
2022/10/17 04:49:54;;;;;;;20.48;15.30;;;12.90;99.90;;;;;;5057083;28;20040;-74
2022/10/17 04:52:20;;;;;;;21.00;13.07;;;12.90;99.90;;;;;;5057063;28;20037;-76
2022/10/17 04:54:45;;;;;;;15.38;12.57;;;12.90;99.90;;;;;;5057513;28;20041;-74
2022/10/17 04:57:11;;;;;;;18.48;12.82;;;13.00;99.90;;;;;;5057263;28;20045;-77
2022/10/17 04:59:36;;;;;;;17.30;13.50;;;13.00;99.90;;;;;;5057736;28;20437;-70
2022/10/17 05:02:02;;;;;;;16.58;12.15;;;13.10;99.90;;;;;;5057173;28;20168;-76
2022/10/17 05:04:28;;;;;;;16.73;11.50;;;13.10;99.90;;;;;;5056762;28;20041;-74
2022/10/17 05:06:53;;;;;;;17.05;11.88;;;13.10;99.90;;;;;;5057208;28;20472;-74
2022/10/17 05:09:19;;;;;;;15.30;12.25;;;13.10;99.90;;;;;;5057200;28;20085;-71
2022/10/17 05:11:44;;;;;;;19.67;11.52;;;13.20;99.90;;;;;;5056551;28;20473;-74
2022/10/17 05:14:10;;;;;;;17.65;13.18;;;13.20;99.90;;;;;;5056924;28;20044;-74
2022/10/17 05:16:35;;;;;;;21.35;13.25;;;13.20;99.90;;;;;;5039583;28;20091;-72
2022/10/17 05:19:01;;;;;;;18.52;12.43;;;13.20;99.90;;;;;;5004906;28;20491;-72
2022/10/17 05:21:28;;;;;;;18.40;13.05;;;13.20;99.90;;;;;;5039117;28;20403;-71
2022/10/17 05:23:54;;;;;;;14.63;11.35;;;13.30;99.90;;;;;;5056169;28;20049;-71
2022/10/17 05:26:20;;;;;;;16.60;12.10;;;13.10;99.90;;;;;;5039084;28;20128;-72
2022/10/17 05:28:46;;;;;;;21.10;13.65;;;13.20;99.90;;;;;;5056261;28;20052;-70
2022/10/17 05:31:12;;;;;;;18.80;13.60;;;13.20;99.90;;;;;;5056332;28;20045;-71
2022/10/17 05:33:38;;;;;;;19.63;13.73;;;13.20;99.90;;;;;;5056613;28;20041;-73
2022/10/17 05:36:05;;;;;;;22.33;12.93;;;13.40;99.90;;;;;;5056633;28;20057;-73
2022/10/17 05:38:30;;;;;;;18.83;14.15;;;13.20;99.90;;;;;;5056558;28;20086;-72
2022/10/17 05:41:00;;;;;;;15.43;11.25;;;13.20;99.90;;;;;;5039157;28;20088;-72
2022/10/17 05:43:27;;;;;;;17.65;14.52;;;13.20;99.90;;;;;;5056155;28;20123;-74
2022/10/17 05:45:53;;;;;;;21.77;14.10;;;13.30;99.90;;;;;;5038676;28;20056;-74
2022/10/17 05:48:19;;;;;;;20.90;14.38;;;13.30;99.90;;;;;;5056421;28;20037;-73
2022/10/17 05:50:45;;;;;;;16.58;14.20;;;13.30;99.90;;;;;;5038576;28;20047;-72
2022/10/17 05:53:10;;;;;;;25.75;15.55;;;13.30;99.90;;;;;;5056338;28;20142;-72
2022/10/17 05:55:36;;;;;;;17.08;13.98;;;13.40;99.90;;;;;;5038570;28;20049;-71
2022/10/17 05:58:02;;;;;;;18.08;13.95;;;13.40;99.90;;;;;;5055318;28;20457;-71
2022/10/17 06:00:27;;;;;;;16.98;12.88;;;13.40;99.90;;;;;;5055688;28;20045;-71
2022/10/17 06:02:53;;;;;;;20.98;14.10;;;13.30;99.90;;;;;;5055284;28;20055;-72
2022/10/17 06:05:18;;;;;;;20.15;14.90;;;13.30;99.90;;;;;;5056062;28;20116;-71
2022/10/17 06:07:44;;;;;;;17.88;15.02;;;13.30;99.90;;;;;;5055620;28;20472;-73
2022/10/17 06:10:15;;;;;;;24.30;14.90;;;13.40;99.90;;;;;;5038393;28;20111;-73
2022/10/17 06:12:41;;;;;;;24.23;15.55;;;13.30;99.90;;;;;;5055984;28;20128;-72
2022/10/17 06:15:07;;;;;;;14.43;11.48;;;13.50;99.90;;;;;;5055915;28;20124;-70
2022/10/17 06:17:34;;;;;;;29.40;15.35;;;13.40;99.90;;;;;;5055263;28;20045;-73
2022/10/17 06:19:59;;;;;;;20.15;15.35;;;13.50;99.90;;;;;;5055148;28;20055;-72
2022/10/17 06:22:25;;;;;;;21.48;14.77;;;13.40;99.90;;;;;;5038512;28;20450;-73
2022/10/17 06:24:52;;;;;;;19.77;16.05;;;13.50;99.90;;;;;;5055362;28;20048;-72
2022/10/17 06:27:18;;;;;;;19.40;13.88;;;13.50;99.90;;;;;;5055591;28;20048;-71
2022/10/17 06:29:45;;;;;;;15.32;12.68;;;13.50;99.90;;;;;;5056069;28;20069;-71
2022/10/17 06:32:11;;;;;;;15.90;13.45;;;13.60;99.90;;;;;;5055443;28;20048;-71
2022/10/17 06:34:36;;;;;;;18.40;14.32;;;13.60;99.90;;;;;;5054826;28;20057;-72
2022/10/17 06:37:02;;;;;;;15.20;12.68;;;13.60;99.90;;;;;;5054806;28;20049;-71
2022/10/17 06:39:32;;;;;;;20.42;13.68;;;13.70;99.90;;;;;;5055254;28;20049;-71
2022/10/17 06:42:02;;;;;;;24.10;12.75;;;13.60;99.90;;;;;;5055410;28;20052;-72
2022/10/17 06:44:30;;;;;;;20.40;13.75;;;13.70;99.90;;;;;;5055027;28;20037;-75
2022/10/17 06:46:57;;;;;;;21.75;15.00;;;13.70;99.90;;;;;;5054709;28;20120;-73
2022/10/17 06:49:22;;;;;;;16.70;13.00;;;13.70;99.90;;;;;;5055356;28;20363;-72
2022/10/17 06:51:48;;;;;;;19.92;14.40;;;13.80;99.90;;;;;;5055029;28;20048;-74
2022/10/17 06:54:13;;;;;;;18.38;13.65;;;13.80;99.90;;;;;;5054918;28;20420;-72
2022/10/17 06:56:39;;;;;;;18.45;14.40;;;13.90;99.90;;;;;;5055096;28;20056;-71
2022/10/17 06:59:04;;;;;;;17.40;13.88;;;13.90;99.90;;;;;;5055062;28;20588;-71
2022/10/17 07:01:31;;;;;;;20.67;15.45;;;14.00;99.90;;;;;;5037322;28;20369;-72
2022/10/17 07:03:56;;;;;;;18.83;14.00;;;14.00;99.90;;;;;;5036314;28;20057;-72
2022/10/17 07:06:25;;;;;;;19.48;13.23;;;14.00;99.90;;;;;;5054833;28;20052;-74
2022/10/17 07:08:51;;;;;;;19.40;13.63;;;14.00;99.90;;;;;;5037182;28;20442;-72
2022/10/17 07:11:19;;;;;;;20.05;12.43;;;14.10;99.90;;;;;;5054945;28;20044;-71
2022/10/17 07:13:45;;;;;;;20.25;13.48;;;14.10;99.90;;;;;;5054932;28;20449;-72
2022/10/17 07:16:11;;;;;;;17.83;12.32;;;14.20;99.90;;;;;;5054813;28;20059;-72
2022/10/17 07:18:37;;;;;;;20.63;13.82;;;14.30;99.90;;;;;;5054277;28;20053;-72
2022/10/17 07:21:03;;;;;;;18.08;12.27;;;14.50;99.90;;;;;;5055006;28;20128;-74
2022/10/17 07:23:29;;;;;;;15.27;12.02;;;14.40;99.90;;;;;;5054613;28;20080;-73
2022/10/17 07:26:00;;;;;;;17.52;12.32;;;14.60;99.90;;;;;;5055112;28;20097;-71
2022/10/17 07:28:26;;;;;;;17.00;12.35;;;14.60;99.90;;;;;;5054999;28;20060;-70
2022/10/17 07:30:52;;;;;;;18.90;12.35;;;14.70;99.90;;;;;;5055000;28;20361;-72
2022/10/17 07:33:17;;;;;;;16.85;11.13;;;14.80;99.90;;;;;;5054210;28;20110;-72
2022/10/17 07:35:43;;;;;;;18.33;10.88;;;14.80;99.90;;;;;;5057750;28;20095;-72
2022/10/17 07:38:08;;;;;;;14.63;10.57;;;14.90;99.90;;;;;;5025042;28;20060;-71
2022/10/17 07:40:34;;;;;;;15.00;11.50;;;15.00;99.90;;;;;;5058598;28;20389;-72
2022/10/17 07:43:00;;;;;;;15.50;12.25;;;15.00;99.90;;;;;;5057814;28;20080;-72
2022/10/17 07:45:26;;;;;;;16.88;10.73;;;15.10;99.90;;;;;;5058428;28;20080;-72
2022/10/17 07:47:56;;;;;;;15.02;11.15;;;15.20;99.90;;;;;;5040255;28;20114;-71
2022/10/17 07:50:22;;;;;;;14.25;10.70;;;15.30;99.90;;;;;;5058441;28;20088;-72
2022/10/17 07:52:47;;;;;;;18.92;10.90;;;15.40;99.90;;;;;;5058429;28;20448;-73
2022/10/17 07:55:13;;;;;;;13.25;10.13;;;15.60;99.90;;;;;;5058359;28;20067;-73
2022/10/17 07:57:39;;;;;;;12.32;9.40;;;15.50;99.90;;;;;;5058449;28;20053;-72
2022/10/17 08:00:06;;;;;;;15.93;9.43;;;15.60;99.90;;;;;;5058096;28;20056;-72
2022/10/17 08:02:32;;;;;;;15.77;9.77;;;15.70;99.90;;;;;;5057738;28;20091;-73
2022/10/17 08:04:57;;;;;;;13.80;9.27;;;15.70;99.90;;;;;;5041055;28;20084;-72
2022/10/17 08:07:23;;;;;;;12.65;9.70;;;15.80;99.90;;;;;;5058289;28;20056;-71
2022/10/17 08:09:49;;;;;;;15.82;9.35;;;15.80;99.90;;;;;;5058230;28;20427;-72
2022/10/17 08:12:14;;;;;;;14.93;9.88;;;15.80;99.90;;;;;;5058093;28;20052;-71
2022/10/17 08:14:41;;;;;;;14.40;8.82;;;15.90;99.90;;;;;;5058646;28;20075;-72
2022/10/17 08:17:07;;;;;;;15.02;9.27;;;15.90;99.90;;;;;;5057415;28;20052;-72
2022/10/17 08:19:32;;;;;;;19.73;9.73;;;16.10;99.90;;;;;;5040023;28;20373;-73
2022/10/17 08:21:58;;;;;;;14.77;9.20;;;16.10;99.90;;;;;;5040745;28;20045;-72
2022/10/17 08:24:24;;;;;;;19.48;9.70;;;16.20;99.90;;;;;;5039983;28;20357;-72
2022/10/17 08:26:52;;;;;;;10.75;8.70;;;16.30;99.90;;;;;;5057845;28;20136;-71
2022/10/17 08:29:18;;;;;;;12.15;8.65;;;16.30;99.90;;;;;;5057070;28;20473;-73
2022/10/17 08:31:44;;;;;;;16.25;8.50;;;16.40;99.90;;;;;;5057060;28;20083;-73
2022/10/17 08:34:09;;;;;;;13.32;8.70;;;16.40;99.90;;;;;;5057742;28;20084;-72
2022/10/17 08:36:35;;;;;;;17.45;8.15;;;16.50;99.90;;;;;;5057395;28;20463;-72
2022/10/17 08:39:01;;;;;;;14.82;8.27;;;16.50;99.90;;;;;;5040217;28;20380;-71
2022/10/17 08:41:33;;;;;;;15.20;8.07;;;16.50;99.90;;;;;;5057529;28;20512;-72
2022/10/17 08:44:20;;;;;;;13.88;8.43;;;16.50;99.90;;;;;;5057103;28;20053;-72
2022/10/17 08:46:48;;;;;;;18.98;8.23;;;16.50;99.90;;;;;;5055576;28;20066;-73
2022/10/17 08:49:25;;;;;;;9.50;7.35;;;16.60;99.90;;;;;;5057961;28;20457;-72
2022/10/17 08:51:58;;;;;;;10.65;7.30;;;16.60;99.90;;;;;;5056787;28;20386;-72
2022/10/17 08:54:45;;;;;;;13.45;9.10;;;16.60;99.90;;;;;;5057692;28;20075;-72
2022/10/17 08:57:16;;;;;;;15.75;8.73;;;16.60;99.90;;;;;;5057098;28;20055;-72
2022/10/17 08:59:44;;;;;;;20.95;8.20;;;16.60;99.90;;;;;;5056777;28;20119;-73
2022/10/17 09:02:40;;;;;;;13.23;8.32;;;16.70;99.90;;;;;;5057748;28;20040;-72
2022/10/17 09:05:38;;;;;;;10.93;7.75;;;16.70;99.90;;;;;;5039722;28;20175;-72
2022/10/17 09:08:27;;;;;;;11.88;7.75;;;16.70;99.90;;;;;;5039971;28;20048;-72
2022/10/17 09:11:28;;;;;;;9.13;7.50;;;16.80;99.90;;;;;;5039423;28;20057;-71
2022/10/17 09:14:11;;;;;;;13.35;7.05;;;16.70;99.90;;;;;;5056352;28;20040;-72
2022/10/17 09:16:44;;;;;;;10.73;6.70;;;16.80;99.90;;;;;;5020292;28;20053;-72
2022/10/17 09:19:18;;;;;;;10.55;7.50;;;16.90;99.90;;;;;;5049095;28;20076;-71
2022/10/17 09:21:58;;;;;;;11.85;6.97;;;16.90;99.90;;;;;;5056953;28;20049;-72
2022/10/17 09:24:47;;;;;;;8.38;6.30;;;17.00;99.90;;;;;;5056606;28;20056;-73
2022/10/17 09:27:39;;;;;;;11.13;7.10;;;17.00;99.90;;;;;;5056797;28;20045;-71
2022/10/17 09:30:43;;;;;;;11.55;6.65;;;17.00;99.90;;;;;;5056423;28;20045;-72
2022/10/17 09:33:13;;;;;;;;;;;17.00;99.90;;;;;;5056560;28;20049;-72
2022/10/17 09:35:40;;;;;;;12.88;7.47;;;16.90;99.90;;;;;;5055932;28;20218;-73
2022/10/17 09:38:14;;;;;;;13.95;7.30;;;16.90;99.90;;;;;;5056512;28;20064;-70
2022/10/17 09:40:39;;;;;;;;;;;16.90;99.90;;;;;;5056426;28;20057;-71
2022/10/17 09:43:10;;;;;;;13.77;7.18;;;16.90;99.90;;;;;;5056186;28;20391;-72
2022/10/17 09:45:45;;;;;;;10.20;6.78;;;17.00;99.90;;;;;;5038840;28;20457;-71
2022/10/17 09:48:28;;;;;;;12.30;7.15;;;16.90;99.90;;;;;;5055873;28;20095;-70
2022/10/17 09:50:55;;;;;;;14.57;7.57;;;16.90;99.90;;;;;;5038371;28;20513;-72
2022/10/17 09:53:32;;;;;;;15.90;7.88;;;16.90;99.90;;;;;;5056100;28;20056;-72
2022/10/17 09:56:01;;;;;;;14.05;7.18;;;16.90;99.90;;;;;;5056600;28;20037;-71
2022/10/17 09:58:53;;;;;;;14.35;7.80;;;16.80;99.90;;;;;;5055747;28;20056;-72
2022/10/17 10:01:21;;;;;;;15.30;7.68;;;16.80;99.90;;;;;;5055756;28;20045;-72
2022/10/17 10:04:06;;;;;;;13.88;7.40;;;16.80;99.90;;;;;;5055388;28;20049;-72
2022/10/17 10:06:32;;;;;;;11.77;7.82;;;16.90;99.90;;;;;;5056552;28;20079;-72
2022/10/17 10:08:57;;;;;;;22.83;9.25;;;16.70;99.90;;;;;;5039130;28;20052;-73
2022/10/17 10:11:42;;;;;;;13.73;8.98;;;16.70;99.90;;;;;;5055558;28;20457;-72
2022/10/17 10:14:18;;;;;;;15.10;7.97;;;16.70;99.90;;;;;;5055766;28;20053;-71
2022/10/17 10:16:47;;;;;;;13.70;8.77;;;16.70;99.90;;;;;;5038201;28;20132;-72
2022/10/17 10:19:32;;;;;;;17.00;8.70;;;16.60;99.90;;;;;;5055543;28;20334;-71
2022/10/17 10:22:12;;;;;;;17.90;9.73;;;16.50;99.90;;;;;;5055311;28;20106;-71
2022/10/17 10:24:38;;;;;;;16.15;9.65;;;16.50;99.90;;;;;;5055332;28;20110;-71
2022/10/17 10:27:04;;;;;;;14.25;9.07;;;16.60;99.90;;;;;;5038770;28;20049;-71
2022/10/17 10:29:41;;;;;;;19.13;10.13;;;16.50;99.90;;;;;;5055386;28;20041;-72
2022/10/17 10:32:18;;;;;;;13.60;8.55;;;16.50;99.90;;;;;;5055234;28;20110;-72
2022/10/17 10:34:51;;;;;;;18.38;9.95;;;16.50;99.90;;;;;;5015147;28;20095;-73
2022/10/17 10:37:25;;;;;;;14.00;10.27;;;16.50;99.90;;;;;;5035521;28;20373;-72
2022/10/17 10:39:57;;;;;;;16.95;9.55;;;16.50;99.90;;;;;;5036073;28;20057;-72
2022/10/17 10:42:28;;;;;;;16.00;10.43;;;16.50;99.90;;;;;;5035564;28;20125;-74
2022/10/17 10:45:14;;;;;;;17.50;9.80;;;16.40;99.90;;;;;;5035541;28;20064;-72
2022/10/17 10:47:58;;;;;;;15.13;9.30;;;16.50;99.90;;;;;;5035243;28;20053;-72
2022/10/17 10:50:43;;;;;;;13.43;9.35;;;16.50;99.90;;;;;;5049028;28;20059;-74
2022/10/17 10:53:28;;;;;;;14.02;9.23;;;16.50;99.90;;;;;;5055227;28;20088;-73
2022/10/17 10:56:01;;;;;;;17.58;10.43;;;16.40;99.90;;;;;;5055708;28;20382;-73
2022/10/17 10:58:40;;;;;;;19.70;11.23;;;16.50;99.90;;;;;;5055060;28;20045;-71
2022/10/17 11:01:21;;;;;;;16.90;10.68;;;16.40;99.90;;;;;;5055359;28;20362;-72
2022/10/17 11:03:55;;;;;;;20.33;10.25;;;16.40;99.90;;;;;;5054634;28;20049;-71
2022/10/17 11:06:28;;;;;;;16.08;11.50;;;16.40;99.90;;;;;;5055300;28;20049;-73
2022/10/17 11:09:23;;;;;;;18.10;11.10;;;16.40;99.90;;;;;;5054368;28;20072;-73
2022/10/17 11:11:57;;;;;;;16.08;10.35;;;16.40;99.90;;;;;;5054869;28;20047;-71
2022/10/17 11:14:40;;;;;;;19.35;11.38;;;16.50;99.90;;;;;;5021583;28;20107;-73
2022/10/17 11:17:29;;;;;;;20.65;12.38;;;16.50;99.90;;;;;;5054046;28;20114;-72
2022/10/17 11:20:30;;;;;;;12.32;9.57;;;16.50;99.90;;;;;;5054763;28;20446;-72
2022/10/17 11:23:11;;;;;;;14.13;9.55;;;16.60;99.90;;;;;;5037030;28;20057;-73
2022/10/17 11:25:39;;;;;;;19.15;10.88;;;16.60;99.90;;;;;;5054981;28;20408;-72
2022/10/17 11:28:14;;;;;;;20.02;10.38;;;16.60;99.90;;;;;;5055080;28;20049;-73
2022/10/17 11:31:18;;;;;;;13.27;10.02;;;16.60;99.90;;;;;;5055320;28;20044;-71
2022/10/17 11:33:56;;;;;;;14.43;10.10;;;16.70;99.90;;;;;;5035534;28;20388;-72
2022/10/17 11:36:28;;;;;;;18.70;11.52;;;16.60;99.90;;;;;;5054750;28;20135;-72
2022/10/17 11:39:16;;;;;;;16.00;10.57;;;16.60;99.90;;;;;;5037039;28;20163;-72
2022/10/17 11:41:48;;;;;;;24.55;11.43;;;16.60;99.90;;;;;;5036785;28;20094;-71
2022/10/17 11:44:36;;;;;;;14.75;10.70;;;16.60;99.90;;;;;;5054310;28;20040;-71
2022/10/17 11:47:20;;;;;;;29.25;12.18;;;16.60;99.90;;;;;;5055148;28;20115;-72
2022/10/17 11:49:50;;;;;;;27.10;11.52;;;16.60;99.90;;;;;;5054393;28;20045;-72
2022/10/17 11:52:38;;;;;;;16.35;12.20;;;16.60;99.90;;;;;;5037619;28;20369;-72
2022/10/17 11:55:26;;;;;;;13.50;10.77;;;16.60;99.90;;;;;;5054504;28;20044;-71
2022/10/17 11:57:54;;;;;;;16.48;10.30;;;16.70;99.90;;;;;;5054036;28;20057;-73
2022/10/17 12:00:55;;;;;;;16.85;10.57;;;16.60;99.90;;;;;;5054204;28;20438;-72
2022/10/17 12:03:45;;;;;;;14.73;10.70;;;16.60;99.90;;;;;;4973246;28;20062;-72
2022/10/17 12:06:49;;;;;;;13.88;9.85;;;16.70;99.90;;;;;;5050920;28;20049;-72
2022/10/17 12:09:46;;;;;;;16.73;11.00;;;16.80;99.90;;;;;;5054499;28;20081;-74
2022/10/17 12:12:25;;;;;;;15.00;8.93;;;16.90;99.90;;;;;;5026286;28;20417;-72
2022/10/17 12:14:51;;;;;;;17.30;9.50;;;17.10;99.90;;;;;;5054121;28;20045;-71
2022/10/17 12:17:22;;;;;;;12.63;8.23;;;17.20;99.90;;;;;;5054134;28;20419;-72
2022/10/17 12:19:48;;;;;;;14.70;7.95;;;17.30;99.90;;;;;;5053958;28;20045;-72
2022/10/17 12:22:22;;;;;;;13.80;7.75;;;17.30;99.90;;;;;;5057800;28;20079;-72
2022/10/17 12:24:56;;;;;;;15.32;7.63;;;17.40;99.90;;;;;;5039802;28;20048;-72
2022/10/17 12:27:55;;;;;;;12.98;7.50;;;17.30;99.90;;;;;;5058255;28;20049;-72
2022/10/17 12:30:24;;;;;;;11.82;7.93;;;17.30;99.90;;;;;;5056783;28;20462;-71
2022/10/17 12:33:24;;;;;;;12.02;8.02;;;17.30;99.90;;;;;;5057915;28;20048;-72
2022/10/17 12:36:10;;;;;;;10.98;7.40;;;17.30;99.90;;;;;;5057518;28;20134;-72
2022/10/17 12:38:36;;;;;;;10.80;7.28;;;17.30;99.90;;;;;;5057612;28;20052;-72
2022/10/17 12:41:04;;;;;;;12.48;7.53;;;17.30;99.90;;;;;;5058176;28;20059;-71
2022/10/17 12:43:30;;;;;;;13.57;6.95;;;17.20;99.90;;;;;;5056805;28;20052;-70
2022/10/17 12:45:57;;;;;;;12.00;7.20;;;17.20;99.90;;;;;;5040219;28;20057;-73
2022/10/17 12:48:32;;;;;;;9.75;6.15;;;17.30;99.90;;;;;;5057428;28;20045;-71
2022/10/17 12:51:04;;;;;;;13.75;5.63;;;17.20;99.90;;;;;;5057676;28;20052;-73
2022/10/17 12:54:06;;;;;;;8.32;5.85;;;17.10;99.90;;;;;;5057480;28;20075;-73
2022/10/17 12:56:58;;;;;;;17.77;6.47;;;17.10;99.90;;;;;;5057322;28;20045;-70